Time;durP1;ratioP1;P1;durP2;ratioP2;P2;SDS_P1;SDS_P2;PMS_P1;PMS_P2;Temp;Humidity;BMP_temperature;BMP_pressure;BME280_temperature;BME280_humidity;BME280_pressure;Samples;Min_cycle;Max_cycle;Signal;HPM_P1;HPM_P2
2023/10/01 00:00:46;;;;;;;13.68;7.97;;;;;;;15.41;100.00;102316.19;5238482;28;20033;-71
2023/10/01 00:03:18;;;;;;;10.37;7.93;;;;;;;15.18;100.00;102320.97;5248798;28;20032;-69
2023/10/01 00:05:50;;;;;;;12.73;8.30;;;;;;;15.27;100.00;102322.25;5252071;28;20503;-70
2023/10/01 00:08:22;;;;;;;11.23;8.03;;;;;;;15.02;100.00;102327.13;5246437;28;20052;-69
2023/10/01 00:10:53;;;;;;;12.70;8.57;;;;;;;15.04;100.00;102321.75;5253810;28;20100;-69
2023/10/01 00:13:26;;;;;;;11.40;7.97;;;;;;;15.02;100.00;102329.75;5251944;28;20025;-70
2023/10/01 00:15:59;;;;;;;9.77;7.30;;;;;;;14.83;100.00;102320.22;5252318;28;20035;-69
2023/10/01 00:18:31;;;;;;;11.97;8.03;;;;;;;14.90;100.00;102326.00;5253380;28;20025;-69
2023/10/01 00:21:02;;;;;;;13.53;8.13;;;;;;;14.72;100.00;102323.41;5245269;28;20029;-70
2023/10/01 00:23:34;;;;;;;11.03;7.37;;;;;;;14.84;100.00;102328.94;5250129;28;20452;-69
2023/10/01 00:26:05;;;;;;;9.93;7.70;;;;;;;14.76;100.00;102321.44;5253167;28;20033;-69
2023/10/01 00:28:37;;;;;;;12.03;8.30;;;;;;;14.78;100.00;102326.63;5250690;28;20036;-69
2023/10/01 00:31:08;;;;;;;10.20;7.03;;;;;;;15.11;100.00;102323.13;5248572;28;20030;-70
2023/10/01 00:33:41;;;;;;;13.50;8.53;;;;;;;14.98;100.00;102325.56;5253534;28;20029;-69
2023/10/01 00:36:13;;;;;;;11.13;8.07;;;;;;;14.87;100.00;102316.47;5251689;28;20080;-69
2023/10/01 00:38:45;;;;;;;10.80;7.47;;;;;;;14.99;100.00;102320.19;5242270;28;20055;-69
2023/10/01 00:41:16;;;;;;;11.63;8.20;;;;;;;14.87;100.00;102318.25;5249563;28;20988;-69
2023/10/01 00:43:47;;;;;;;12.20;8.40;;;;;;;14.88;100.00;102322.59;5246162;28;20021;-70
2023/10/01 00:46:19;;;;;;;10.87;7.23;;;;;;;14.87;100.00;102315.63;5251806;28;20071;-69
2023/10/01 00:48:52;;;;;;;11.47;7.50;;;;;;;15.07;100.00;102319.78;5252647;28;20075;-69
2023/10/01 00:51:24;;;;;;;12.85;7.40;;;;;;;14.83;100.00;102314.94;5250797;28;20115;-69
2023/10/01 00:53:58;;;;;;;9.00;6.60;;;;;;;15.11;100.00;102304.63;5244144;28;20547;-69
2023/10/01 00:56:31;;;;;;;11.35;7.10;;;;;;;15.07;100.00;102297.81;5245245;28;20029;-70
2023/10/01 00:59:03;;;;;;;9.97;6.47;;;;;;;15.10;100.00;102301.16;5251342;28;20017;-69
2023/10/01 01:01:35;;;;;;;11.40;7.80;;;;;;;14.94;100.00;102287.13;5251985;28;20036;-69
2023/10/01 01:04:10;;;;;;;14.53;7.07;;;;;;;15.08;100.00;102296.91;5251585;28;20063;-69
2023/10/01 01:06:41;;;;;;;13.17;6.93;;;;;;;14.91;100.00;102282.84;5269263;23;20053;-69
2023/10/01 01:09:15;;;;;;;10.57;6.17;;;;;;;14.66;100.00;102284.16;5208291;28;20045;-69
2023/10/01 01:11:47;;;;;;;9.57;6.60;;;;;;;14.54;100.00;102269.84;5211890;28;20579;-70
2023/10/01 01:14:21;;;;;;;10.27;6.93;;;;;;;14.92;100.00;102271.38;5203956;28;20069;-69
2023/10/01 01:16:52;;;;;;;9.10;6.63;;;;;;;14.72;100.00;102280.34;5208748;28;20492;-69
2023/10/01 01:19:24;;;;;;;9.73;6.20;;;;;;;14.73;100.00;102272.34;5208693;28;20105;-69
2023/10/01 01:21:56;;;;;;;8.93;5.90;;;;;;;14.93;100.00;102267.78;5211246;28;20026;-69
2023/10/01 01:24:29;;;;;;;10.83;5.90;;;;;;;14.82;100.00;102270.19;5209716;28;20445;-69
2023/10/01 01:27:00;;;;;;;8.13;5.57;;;;;;;14.74;100.00;102263.50;5211030;28;20116;-69
2023/10/01 01:29:40;;;;;;;9.43;6.03;;;;;;;14.79;100.00;102270.31;5206014;28;20609;-69
2023/10/01 01:32:14;;;;;;;10.87;6.17;;;;;;;14.92;100.00;102268.75;5211231;28;20041;-69
2023/10/01 01:34:45;;;;;;;8.93;4.93;;;;;;;14.80;100.00;102267.56;5211630;28;20032;-69
2023/10/01 01:37:30;;;;;;;9.00;5.87;;;;;;;14.87;100.00;102257.59;5209363;28;20034;-69
2023/10/01 01:40:09;;;;;;;8.80;5.63;;;;;;;14.69;100.00;102265.56;5211376;28;20025;-70
2023/10/01 01:42:40;;;;;;;8.37;5.30;;;;;;;14.90;100.00;102262.69;5209616;28;20416;-69
2023/10/01 01:45:25;;;;;;;10.83;5.50;;;;;;;14.93;100.00;102261.66;5211315;28;20033;-70
2023/10/01 01:47:56;;;;;;;8.30;5.57;;;;;;;14.97;100.00;102258.78;5205276;28;20057;-70
2023/10/01 01:50:28;;;;;;;9.70;6.10;;;;;;;15.00;100.00;102249.84;5201448;28;20034;-70
2023/10/01 01:53:04;;;;;;;8.23;5.07;;;;;;;14.75;100.00;102248.53;5210159;28;20101;-69
2023/10/01 01:55:35;;;;;;;15.13;6.07;;;;;;;14.95;100.00;102244.81;5210473;28;20021;-70
2023/10/01 01:58:08;;;;;;;12.77;6.03;;;;;;;14.87;100.00;102247.03;5197194;28;20022;-69
2023/10/01 02:01:01;;;;;;;6.87;4.83;;;;;;;14.88;100.00;102259.28;5209467;28;20099;-69
2023/10/01 02:03:35;;;;;;;9.30;5.40;;;;;;;14.92;100.00;102258.19;5210559;28;20469;-70
2023/10/01 02:06:08;;;;;;;9.55;5.47;;;;;;;14.90;100.00;102252.16;5210524;28;20057;-70
2023/10/01 02:08:50;;;;;;;10.30;5.57;;;;;;;14.89;100.00;102253.06;5196118;28;20432;-70
2023/10/01 02:11:22;;;;;;;10.50;5.37;;;;;;;14.87;100.00;102247.03;5210378;28;20030;-69
2023/10/01 02:13:57;;;;;;;8.80;5.30;;;;;;;14.88;100.00;102254.00;5211723;28;20026;-69
2023/10/01 02:19:21;;;;;;;9.90;5.27;;;;;;;14.55;100.00;102245.22;5210678;28;20488;-69
2023/10/01 02:22:00;;;;;;;9.47;6.10;;;;;;;14.67;100.00;102235.78;5227253;28;20026;-69
2023/10/01 02:24:45;;;;;;;8.50;5.50;;;;;;;14.55;100.00;102226.75;5209423;28;20068;-70
2023/10/01 02:27:26;;;;;;;9.73;6.03;;;;;;;14.60;100.00;102227.34;5207957;28;20634;-70
2023/10/01 02:30:32;;;;;;;9.37;6.03;;;;;;;14.69;100.00;102233.06;5210752;28;20022;-69
2023/10/01 02:35:49;;;;;;;8.60;4.57;;;;;;;14.63;100.00;102235.09;5210927;28;20042;-69
2023/10/01 02:38:40;;;;;;;11.73;5.97;;;;;;;14.74;100.00;102236.28;5200767;28;20027;-69
2023/10/01 02:41:15;;;;;;;9.17;5.60;;;;;;;14.76;100.00;102235.28;5208436;28;20529;-69
2023/10/01 02:43:50;;;;;;;11.40;6.23;;;;;;;14.40;100.00;102231.06;5210609;28;20030;-69
2023/10/01 02:46:26;;;;;;;10.10;5.57;;;;;;;14.70;100.00;102240.00;5210456;28;20084;-69
2023/10/01 02:48:59;;;;;;;11.70;6.13;;;;;;;14.71;100.00;102245.22;5210090;28;20041;-69
2023/10/01 02:51:37;;;;;;;10.50;5.63;;;;;;;14.64;100.00;102247.31;5196936;28;20102;-69
2023/10/01 02:54:09;;;;;;;9.37;5.23;;;;;;;14.58;100.00;102241.53;5208900;28;20054;-70
2023/10/01 02:56:52;;;;;;;9.40;6.43;;;;;;;14.68;100.00;102248.00;5209232;28;20033;-69
2023/10/01 02:59:24;;;;;;;8.67;5.53;;;;;;;14.38;100.00;102246.13;5196185;28;20034;-69
2023/10/01 03:01:55;;;;;;;9.10;6.20;;;;;;;14.51;100.00;102241.88;5204218;28;20069;-69
2023/10/01 03:04:28;;;;;;;11.97;5.57;;;;;;;14.35;100.00;102247.13;5204201;28;20041;-69
2023/10/01 03:07:04;;;;;;;8.17;4.87;;;;;;;14.35;100.00;102246.28;5208439;28;20095;-70
2023/10/01 03:09:39;;;;;;;10.90;5.70;;;;;;;14.34;100.00;102244.59;5211388;28;20166;-69
2023/10/01 03:12:35;;;;;;;13.80;6.03;;;;;;;14.30;100.00;102238.63;5204511;28;20377;-69
2023/10/01 03:23:17;;;;;;;8.10;5.60;;;;;;;14.31;100.00;102237.72;5209703;28;20125;-69
2023/10/01 03:26:09;;;;;;;8.60;6.30;;;;;;;14.44;100.00;102235.25;5202582;28;20515;-70
2023/10/01 03:31:53;;;;;;;11.70;7.17;;;;;;;14.50;100.00;102239.34;5190305;28;20038;-70
2023/10/01 03:34:30;;;;;;;10.25;6.32;;;;;;;14.49;100.00;102242.91;5189536;28;20026;-69
2023/10/01 03:37:01;;;;;;;12.27;7.10;;;;;;;14.20;100.00;102235.63;5198965;28;20153;-69
2023/10/01 03:39:35;;;;;;;9.70;6.23;;;;;;;14.33;100.00;102240.25;5210839;28;20165;-69
2023/10/01 03:42:13;;;;;;;7.97;5.38;;;;;;;14.16;100.00;102234.09;5213096;28;20029;-69
2023/10/01 03:45:20;;;;;;;11.83;6.40;;;;;;;14.25;100.00;102230.13;5212864;28;20072;-70
2023/10/01 03:47:57;;;;;;;12.53;6.67;;;;;;;14.19;100.00;102228.66;5199855;28;20046;-69
2023/10/01 03:50:31;;;;;;;12.17;6.73;;;;;;;14.25;100.00;102223.06;5210924;28;20053;-69
2023/10/01 03:53:11;;;;;;;10.02;6.72;;;;;;;14.20;100.00;102218.97;5212214;28;20088;-69
2023/10/01 03:55:46;;;;;;;12.93;6.80;;;;;;;14.27;100.00;102228.25;5199326;28;20711;-69
2023/10/01 03:58:26;;;;;;;11.87;6.83;;;;;;;14.13;100.00;102221.09;5212419;28;20108;-69
2023/10/01 04:01:15;;;;;;;9.17;5.70;;;;;;;14.27;100.00;102234.38;5198935;28;20026;-70
2023/10/01 04:03:46;;;;;;;11.90;6.07;;;;;;;14.26;100.00;102224.75;5213211;28;20044;-69
2023/10/01 04:06:21;;;;;;;13.03;6.33;;;;;;;14.26;100.00;102221.28;5212357;28;20030;-69
2023/10/01 04:08:55;;;;;;;10.20;6.30;;;;;;;13.97;100.00;102221.88;5197764;28;20042;-69
2023/10/01 04:11:49;;;;;;;12.18;6.68;;;;;;;14.18;100.00;102216.41;5211408;28;20026;-69
2023/10/01 04:14:23;;;;;;;12.53;6.27;;;;;;;13.95;100.00;102223.75;5212051;28;20037;-69
2023/10/01 04:16:56;;;;;;;9.75;6.60;;;;;;;14.01;100.00;102225.22;5212234;28;20025;-69
2023/10/01 04:19:27;;;;;;;10.57;6.47;;;;;;;14.14;100.00;102223.63;5196369;28;20038;-69
2023/10/01 04:21:59;;;;;;;12.77;5.90;;;;;;;14.10;100.00;102227.34;5211240;28;20401;-69
2023/10/01 04:24:31;;;;;;;11.43;6.70;;;;;;;14.13;100.00;102231.63;5210818;28;20133;-69
2023/10/01 04:27:18;;;;;;;11.83;6.73;;;;;;;13.89;100.00;102224.91;5210475;28;20112;-69
2023/10/01 04:29:57;;;;;;;12.83;6.77;;;;;;;14.10;100.00;102231.78;5198667;28;20453;-69
2023/10/01 04:32:28;;;;;;;12.00;6.07;;;;;;;13.95;100.00;102231.66;5211605;28;20037;-69
2023/10/01 04:35:00;;;;;;;11.83;6.07;;;;;;;13.84;100.00;102226.94;5212397;28;20026;-69
2023/10/01 04:37:37;;;;;;;11.47;7.20;;;;;;;14.04;100.00;102219.78;5210447;28;20411;-69
2023/10/01 04:43:08;;;;;;;13.80;6.93;;;;;;;14.01;100.00;102210.28;5200807;28;20849;-69
2023/10/01 04:45:44;;;;;;;11.80;7.17;;;;;;;14.07;100.00;102208.25;5212151;28;20041;-69
2023/10/01 04:48:15;;;;;;;9.07;6.57;;;;;;;14.07;100.00;102205.63;5209971;28;20018;-69
2023/10/01 04:50:49;;;;;;;11.50;6.77;;;;;;;14.08;100.00;102217.84;5211807;28;20029;-69
2023/10/01 04:53:25;;;;;;;14.75;6.88;;;;;;;14.12;100.00;102219.38;5210947;28;20427;-69
2023/10/01 04:56:00;;;;;;;12.27;7.27;;;;;;;14.01;100.00;102220.81;5211405;28;20518;-69
2023/10/01 04:58:36;;;;;;;10.73;6.23;;;;;;;14.08;100.00;102218.69;5211656;28;20061;-69
2023/10/01 05:01:12;;;;;;;10.10;6.23;;;;;;;13.98;100.00;102222.75;5197313;28;20715;-69
2023/10/01 05:03:44;;;;;;;11.07;6.50;;;;;;;13.88;100.00;102222.34;5205945;28;20038;-69
2023/10/01 05:06:22;;;;;;;13.77;6.77;;;;;;;14.07;100.00;102222.25;5206252;28;20030;-69
2023/10/01 05:08:55;;;;;;;11.33;6.70;;;;;;;14.02;100.00;102222.50;5202874;28;20036;-69
2023/10/01 05:11:31;;;;;;;13.80;7.03;;;;;;;14.01;100.00;102227.84;5205298;28;20030;-69
2023/10/01 05:14:04;;;;;;;14.73;7.90;;;;;;;13.84;100.00;102228.72;5205291;28;20026;-69
2023/10/01 05:16:38;;;;;;;12.53;6.60;;;;;;;14.00;100.00;102223.50;5204577;28;20057;-69
2023/10/01 05:19:09;;;;;;;10.37;6.73;;;;;;;13.99;100.00;102216.53;5203676;28;20030;-69
2023/10/01 05:21:41;;;;;;;13.13;6.93;;;;;;;14.02;100.00;102219.00;5204653;28;20104;-69
2023/10/01 05:24:34;;;;;;;15.40;7.57;;;;;;;13.96;100.00;102212.31;5202238;28;20037;-69
2023/10/01 05:27:09;;;;;;;11.23;6.27;;;;;;;13.76;100.00;102226.47;5196954;28;20039;-69
2023/10/01 05:29:42;;;;;;;12.03;6.90;;;;;;;13.68;100.00;102234.78;5206121;28;20056;-69
2023/10/01 05:32:14;;;;;;;11.10;6.80;;;;;;;13.89;100.00;102234.63;5201279;28;20030;-69
2023/10/01 05:34:46;;;;;;;13.97;6.60;;;;;;;13.90;100.00;102241.56;5202995;28;20048;-68
2023/10/01 05:37:36;;;;;;;12.10;6.80;;;;;;;13.89;100.00;102234.63;5209041;28;20095;-69
2023/10/01 05:40:08;;;;;;;9.83;6.33;;;;;;;13.91;100.00;102238.84;5210893;28;20029;-69
2023/10/01 05:42:40;;;;;;;11.27;6.53;;;;;;;13.93;100.00;102244.03;5197274;28;20026;-69
2023/10/01 05:45:36;;;;;;;17.20;7.20;;;;;;;13.88;100.00;102243.44;5210562;28;20519;-68
2023/10/01 05:48:10;;;;;;;15.70;7.53;;;;;;;13.71;100.00;102247.78;5203468;28;20029;-69
2023/10/01 05:50:42;;;;;;;11.15;6.50;;;;;;;13.79;100.00;102253.50;5209524;28;20048;-68
2023/10/01 05:53:13;;;;;;;11.63;7.23;;;;;;;13.85;100.00;102259.38;5194601;28;20030;-69
2023/10/01 05:55:45;;;;;;;12.10;6.87;;;;;;;13.70;100.00;102246.06;5206757;28;20026;-69
2023/10/01 05:58:16;;;;;;;13.47;6.53;;;;;;;13.86;100.00;102240.03;5208352;28;20504;-69
2023/10/01 06:00:58;;;;;;;11.73;6.33;;;;;;;13.86;100.00;102232.97;5208391;28;20030;-69
2023/10/01 06:03:30;;;;;;;11.40;7.03;;;;;;;13.92;100.00;102234.44;5203495;28;20100;-69
2023/10/01 06:06:13;;;;;;;13.40;7.13;;;;;;;13.98;100.00;102234.13;5207729;28;20026;-69
2023/10/01 06:08:45;;;;;;;11.80;6.93;;;;;;;13.79;100.00;102227.19;5207862;28;20073;-69
2023/10/01 06:11:17;;;;;;;12.77;6.63;;;;;;;13.95;100.00;102241.31;5203122;28;20062;-69
2023/10/01 06:13:56;;;;;;;12.70;6.63;;;;;;;14.02;100.00;102246.22;5201369;28;20537;-69
2023/10/01 06:16:28;;;;;;;12.97;7.03;;;;;;;13.97;100.00;102242.97;5210540;28;20400;-68
2023/10/01 06:18:59;;;;;;;12.13;7.13;;;;;;;13.97;100.00;102242.97;5209811;28;20030;-70
2023/10/01 06:21:32;;;;;;;12.63;6.33;;;;;;;13.95;100.00;102247.44;5202931;28;20036;-69
2023/10/01 06:24:10;;;;;;;12.60;7.30;;;;;;;13.87;100.00;102244.38;5202325;28;20053;-69
2023/10/01 06:26:45;;;;;;;11.80;7.07;;;;;;;13.97;100.00;102248.22;5203478;28;20030;-69
2023/10/01 06:29:17;;;;;;;13.00;7.50;;;;;;;14.04;100.00;102248.75;5201757;28;20490;-70
2023/10/01 06:31:48;;;;;;;13.97;7.03;;;;;;;14.10;100.00;102252.88;5208509;28;20037;-69
2023/10/01 06:34:24;;;;;;;12.47;7.47;;;;;;;14.14;100.00;102246.47;5207118;28;20137;-69
2023/10/01 06:37:01;;;;;;;13.40;7.10;;;;;;;14.07;100.00;102243.31;5213543;28;20038;-69
2023/10/01 06:39:35;;;;;;;12.67;7.50;;;;;;;14.15;100.00;102245.56;5213755;28;20041;-69
2023/10/01 06:42:19;;;;;;;;;;;;;;;14.58;100.00;102245.03;5213254;28;20034;-69
2023/10/01 06:44:52;;;;;;;12.67;6.63;;;;;;;14.32;100.00;102252.56;5212632;28;19966;-69
2023/10/01 06:47:25;;;;;;;17.63;7.85;;;;;;;14.37;100.00;102241.78;5212825;28;20026;-69
2023/10/01 06:49:57;;;;;;;11.77;7.10;;;;;;;14.37;100.00;102233.88;5206824;28;20413;-69
2023/10/01 06:52:29;;;;;;;13.63;6.80;;;;;;;14.35;100.00;102248.91;5209594;28;20110;-69
2023/10/01 06:55:02;;;;;;;11.30;6.40;;;;;;;14.41;100.00;102238.06;5208592;28;20046;-69
2023/10/01 06:57:33;;;;;;;17.33;8.23;;;;;;;14.37;100.00;102220.69;5211895;28;20038;-69
2023/10/01 07:00:17;;;;;;;16.80;7.73;;;;;;;14.46;100.00;102236.03;5213090;28;20464;-69
2023/10/01 07:02:49;;;;;;;11.02;7.35;;;;;;;14.58;100.00;102234.50;5201368;28;20084;-69
2023/10/01 07:05:22;;;;;;;15.60;8.07;;;;;;;14.59;100.00;102232.72;5212671;28;20029;-69
2023/10/01 07:07:54;;;;;;;13.80;7.37;;;;;;;14.60;100.00;102237.91;5206497;28;20103;-69
2023/10/01 07:10:25;;;;;;;12.77;7.20;;;;;;;14.61;100.00;102228.19;5206813;28;20041;-69
2023/10/01 07:13:04;;;;;;;14.83;7.40;;;;;;;14.71;100.00;102232.03;5211781;28;20859;-69
2023/10/01 07:15:39;;;;;;;13.57;7.27;;;;;;;14.80;100.00;102230.66;5212835;28;20041;-69
2023/10/01 07:18:15;;;;;;;19.70;8.80;;;;;;;14.74;100.00;102226.59;5212884;28;20028;-70
2023/10/01 07:20:49;;;;;;;13.63;7.70;;;;;;;14.74;100.00;102229.22;5204321;28;20054;-69
2023/10/01 07:23:21;;;;;;;11.57;6.70;;;;;;;14.89;100.00;102239.88;5209482;28;20038;-69
2023/10/01 07:26:00;;;;;;;13.53;7.60;;;;;;;15.01;100.00;102238.31;5203197;28;20030;-69
2023/10/01 07:28:31;;;;;;;14.40;7.97;;;;;;;14.99;100.00;102235.78;5204521;28;20034;-69
2023/10/01 07:31:03;;;;;;;17.70;8.83;;;;;;;15.14;100.00;102242.91;5207463;28;20025;-70
2023/10/01 07:33:34;;;;;;;15.67;8.27;;;;;;;15.27;100.00;102249.22;5210947;28;20044;-69
2023/10/01 07:36:10;;;;;;;12.73;8.07;;;;;;;15.27;100.00;102245.72;5212323;28;20021;-69
2023/10/01 07:38:48;;;;;;;14.67;8.53;;;;;;;15.37;100.00;102249.53;5211292;28;20029;-69
2023/10/01 07:41:25;;;;;;;15.13;7.87;;;;;;;15.45;100.00;102247.28;5211431;28;20033;-69
2023/10/01 07:43:56;;;;;;;11.87;7.80;;;;;;;15.51;100.00;102242.56;5208150;28;20515;-69
2023/10/01 07:46:28;;;;;;;12.57;7.30;;;;;;;15.65;100.00;102247.91;5200035;28;20061;-69
2023/10/01 07:49:00;;;;;;;14.50;7.97;;;;;;;15.71;100.00;102247.53;5207663;28;20018;-69
2023/10/01 07:51:38;;;;;;;14.17;7.57;;;;;;;15.84;100.00;102257.38;5194683;28;20097;-69
2023/10/01 07:54:12;;;;;;;16.30;7.70;;;;;;;15.90;100.00;102259.63;5197387;28;20029;-69
2023/10/01 07:56:56;;;;;;;13.95;8.00;;;;;;;16.04;100.00;102252.72;5198487;28;20088;-69
2023/10/01 07:59:33;;;;;;;11.67;6.90;;;;;;;16.21;100.00;102255.16;5213286;28;20134;-69
2023/10/01 08:02:09;;;;;;;15.60;7.63;;;;;;;16.44;100.00;102252.88;5211623;28;20030;-69
2023/10/01 08:07:22;;;;;;;15.90;9.47;;;;;;;17.29;100.00;102258.16;5192021;28;20054;-69
2023/10/01 08:09:54;;;;;;;16.47;7.40;;;;;;;17.94;100.00;102255.63;5198643;28;20473;-69
2023/10/01 08:15:58;;;;;;;16.70;7.77;;;;;;;19.48;100.00;102245.59;5210550;28;20037;-69
2023/10/01 08:18:35;;;;;;;14.93;7.37;;;;;;;20.24;100.00;102252.25;5198014;28;20042;-69
2023/10/01 08:21:18;;;;;;;19.47;9.77;;;;;;;21.19;100.00;102256.28;5212177;28;20072;-69
2023/10/01 08:23:49;;;;;;;11.73;7.00;;;;;;;22.19;98.74;102254.06;5212198;28;20300;-69
2023/10/01 08:29:15;;;;;;;14.40;7.70;;;;;;;23.91;75.23;102270.69;5211937;28;20034;-69
2023/10/01 08:34:23;;;;;;;13.38;8.02;;;;;;;25.15;59.86;102277.66;5208409;28;20045;-70
2023/10/01 08:37:06;;;;;;;14.60;8.18;;;;;;;25.70;54.27;102285.59;5209566;28;20045;-70
2023/10/01 08:39:47;;;;;;;14.23;8.40;;;;;;;26.70;51.53;102275.28;5209677;28;20030;-70
2023/10/01 08:42:19;;;;;;;19.45;8.98;;;;;;;27.70;48.66;102288.75;5208923;28;20460;-70
2023/10/01 08:44:54;;;;;;;17.27;8.00;;;;;;;27.80;45.07;102285.03;5206017;28;20049;-70
2023/10/01 08:47:31;;;;;;;16.63;9.77;;;;;;;28.06;43.40;102283.94;5209326;28;20489;-70
2023/10/01 08:53:00;;;;;;;13.13;7.55;;;;;;;29.08;41.32;102284.88;5200485;28;20050;-70
2023/10/01 09:01:10;;;;;;;14.43;8.23;;;;;;;29.90;39.72;102288.81;5209406;28;20037;-69
2023/10/01 09:03:48;;;;;;;16.85;8.27;;;;;;;30.49;38.46;102295.16;5209251;28;20105;-70
2023/10/01 09:06:25;;;;;;;13.25;8.70;;;;;;;30.63;37.23;102292.59;5204395;28;20421;-70
2023/10/01 09:09:00;;;;;;;14.15;8.27;;;;;;;29.95;38.29;102286.38;5207248;28;20083;-69
2023/10/01 09:11:41;;;;;;;13.15;8.35;;;;;;;30.79;37.96;102286.09;5201066;28;20030;-68
2023/10/01 09:14:20;;;;;;;13.65;8.35;;;;;;;31.45;36.74;102283.34;5209449;28;20088;-69
2023/10/01 09:17:00;;;;;;;11.60;8.23;;;;;;;31.67;35.53;102288.66;5202089;28;20115;-69
2023/10/01 09:19:43;;;;;;;13.93;7.80;;;;;;;33.35;34.91;102282.00;5199666;28;20035;-68
2023/10/01 09:22:58;;;;;;;16.60;8.85;;;;;;;32.68;34.13;102280.94;5200232;28;20032;-69
2023/10/01 09:25:16;;;;;;;13.77;8.35;;;;;;;32.64;35.09;102279.66;5201893;28;20042;-69
2023/10/01 09:27:57;;;;;;;13.00;7.95;;;;;;;31.93;35.28;102274.41;5205122;28;20030;-68
2023/10/01 09:30:35;;;;;;;12.55;7.72;;;;;;;31.34;35.77;102269.28;5203817;28;20124;-69
2023/10/01 09:33:14;;;;;;;10.70;7.70;;;;;;;33.03;33.37;102260.06;5198802;28;20022;-69
2023/10/01 09:36:33;;;;;;;12.10;8.48;;;;;;;31.97;35.03;102261.31;5201830;28;20075;-69
2023/10/01 09:39:03;;;;;;;12.63;7.97;;;;;;;33.71;34.70;102262.69;5204980;28;20049;-69
2023/10/01 09:41:43;;;;;;;10.98;7.45;;;;;;;34.47;32.16;102245.81;5199678;28;20022;-69
2023/10/01 09:44:15;;;;;;;10.82;7.80;;;;;;;33.53;32.24;102248.72;5201388;28;20026;-70
2023/10/01 09:46:51;;;;;;;12.60;8.00;;;;;;;34.39;31.01;102255.91;5206456;28;20033;-69
2023/10/01 09:49:30;;;;;;;12.63;8.77;;;;;;;33.41;32.79;102255.88;5200273;28;20543;-69
2023/10/01 09:52:05;;;;;;;10.68;7.80;;;;;;;33.71;32.62;102268.97;5197757;28;20075;-72
2023/10/01 09:54:43;;;;;;;12.55;7.88;;;;;;;34.15;32.86;102260.19;5204618;28;20491;-71
2023/10/01 09:57:15;;;;;;;13.05;7.97;;;;;;;35.49;30.48;102262.09;5197282;28;20116;-70
2023/10/01 09:59:49;;;;;;;11.88;8.88;;;;;;;35.67;28.69;102253.09;5204989;28;20032;-70
2023/10/01 10:02:27;;;;;;;13.00;8.10;;;;;;;35.14;29.79;102255.31;5194684;28;20120;-70
2023/10/01 10:04:58;;;;;;;13.95;9.20;;;;;;;34.29;31.15;102258.25;5195223;28;20065;-70
2023/10/01 10:07:32;;;;;;;10.73;7.50;;;;;;;34.62;31.06;102253.63;5191926;28;20042;-70
2023/10/01 10:10:06;;;;;;;12.23;8.38;;;;;;;34.57;31.76;102254.31;5212502;28;20699;-71
2023/10/01 10:12:37;;;;;;;13.60;8.50;;;;;;;33.20;32.89;102253.19;5208208;28;20021;-71
2023/10/01 10:15:16;;;;;;;14.05;8.55;;;;;;;33.23;33.52;102249.22;5202651;28;20034;-71
2023/10/01 10:18:15;;;;;;;13.88;8.70;;;;;;;33.32;34.56;102247.94;5200423;28;20034;-70
2023/10/01 10:20:57;;;;;;;12.52;8.15;;;;;;;32.54;34.73;102252.09;5207392;28;20030;-70
2023/10/01 10:23:31;;;;;;;14.48;9.27;;;;;;;31.93;35.38;102249.19;5214249;28;20064;-70
2023/10/01 10:26:30;;;;;;;15.88;8.63;;;;;;;31.34;37.47;102238.69;5207399;28;20096;-69
2023/10/01 10:29:02;;;;;;;13.82;8.85;;;;;;;30.81;38.01;102240.75;5214094;28;20135;-70
2023/10/01 10:31:33;;;;;;;14.43;8.23;;;;;;;28.86;41.46;102232.63;5213731;28;20100;-70
2023/10/01 10:34:28;;;;;;;12.15;8.73;;;;;;;30.47;39.34;102234.22;5214295;28;20029;-69
2023/10/01 10:37:01;;;;;;;13.68;8.63;;;;;;;30.40;38.45;102224.19;5210451;28;20035;-69
2023/10/01 10:39:50;;;;;;;13.73;8.20;;;;;;;29.87;40.32;102225.22;5202021;28;20034;-69
2023/10/01 10:42:33;;;;;;;16.02;8.35;;;;;;;29.82;40.53;102233.03;5212433;28;20416;-69
2023/10/01 10:45:19;;;;;;;15.18;8.82;;;;;;;29.91;40.31;102225.66;5219309;28;20021;-70
2023/10/01 10:48:03;;;;;;;17.80;9.20;;;;;;;29.55;41.32;102222.69;5208067;28;20022;-69
2023/10/01 10:50:47;;;;;;;13.52;8.43;;;;;;;29.61;41.60;102217.59;5213471;28;20515;-70
2023/10/01 10:53:21;;;;;;;14.50;9.38;;;;;;;29.29;42.05;102229.38;5213402;28;20029;-70
2023/10/01 10:55:55;;;;;;;14.38;8.77;;;;;;;29.20;41.69;102220.53;5200548;28;20022;-69
2023/10/01 10:58:39;;;;;;;11.93;8.27;;;;;;;28.92;43.29;102220.28;5203164;28;20485;-68
2023/10/01 11:01:15;;;;;;;13.40;8.68;;;;;;;28.54;43.90;102223.78;5204402;28;20026;-69
2023/10/01 11:03:55;;;;;;;15.10;9.35;;;;;;;28.34;43.96;102214.31;5204896;28;20044;-67
2023/10/01 11:06:40;;;;;;;15.77;8.57;;;;;;;28.54;43.57;102223.78;5210265;28;20277;-69
2023/10/01 11:09:25;;;;;;;14.63;8.77;;;;;;;28.39;43.56;102224.53;5198034;28;20438;-67
2023/10/01 11:12:18;;;;;;;14.10;8.45;;;;;;;28.32;45.95;102223.53;5195526;28;20022;-68
2023/10/01 11:17:59;;;;;;;14.18;9.02;;;;;;;28.29;45.31;102215.81;5198252;28;20038;-68
2023/10/01 11:20:32;;;;;;;15.63;8.68;;;;;;;28.24;46.03;102217.19;5204528;28;20029;-68
2023/10/01 11:23:08;;;;;;;12.83;8.03;;;;;;;27.90;47.42;102202.22;5201411;28;20058;-68
2023/10/01 11:25:47;;;;;;;16.63;8.73;;;;;;;27.56;48.48;102197.94;5196904;28;20285;-69
2023/10/01 11:28:18;;;;;;;14.00;8.23;;;;;;;28.17;48.20;102188.47;5207680;28;20117;-68
2023/10/01 11:30:50;;;;;;;14.35;8.93;;;;;;;28.18;45.42;102185.59;5210396;28;20113;-69
2023/10/01 11:33:31;;;;;;;14.32;8.88;;;;;;;28.10;46.40;102191.03;5206548;28;20091;-69
2023/10/01 11:36:09;;;;;;;12.52;8.60;;;;;;;27.95;47.22;102183.69;5204144;28;20027;-69
2023/10/01 11:38:47;;;;;;;12.73;8.27;;;;;;;27.83;48.08;102193.16;5223286;28;20032;-70
2023/10/01 11:41:38;;;;;;;13.05;7.72;;;;;;;28.12;45.59;102189.00;5212825;28;20018;-70
2023/10/01 11:44:24;;;;;;;15.93;8.85;;;;;;;28.05;46.38;102180.75;5201557;28;20088;-70
2023/10/01 11:46:58;;;;;;;14.20;9.15;;;;;;;28.03;45.73;102180.94;5210082;28;20096;-70
2023/10/01 11:49:34;;;;;;;;;;;;;;;28.45;45.45;102182.59;5212805;28;20033;-70
2023/10/01 11:52:21;;;;;;;13.93;8.43;;;;;;;27.98;46.32;102169.88;5211487;28;19921;-69
2023/10/01 11:54:55;;;;;;;13.57;8.77;;;;;;;27.93;46.50;102179.50;5209146;28;20053;-69
2023/10/01 11:57:31;;;;;;;17.65;9.48;;;;;;;27.70;46.81;102174.91;5207942;28;20500;-69
2023/10/01 12:00:03;;;;;;;15.88;9.18;;;;;;;27.77;47.41;102174.00;5206980;28;20018;-69
2023/10/01 12:02:43;;;;;;;15.85;8.98;;;;;;;27.44;49.75;102173.28;5199624;28;20062;-68
2023/10/01 12:05:16;;;;;;;15.60;9.52;;;;;;;27.28;47.92;102166.94;5208470;28;20032;-68
2023/10/01 12:07:47;;;;;;;14.52;9.20;;;;;;;27.66;47.01;102166.31;5211650;28;20137;-69
2023/10/01 12:10:31;;;;;;;16.60;9.10;;;;;;;27.74;45.71;102146.59;5204914;28;20042;-68
2023/10/01 12:13:07;;;;;;;17.88;9.20;;;;;;;27.49;48.24;102154.78;5208169;28;20064;-67
2023/10/01 12:15:50;;;;;;;16.98;9.82;;;;;;;27.47;46.66;102144.19;5205007;28;20460;-68
2023/10/01 12:18:36;;;;;;;15.98;9.00;;;;;;;27.74;44.93;102155.53;5194489;28;20033;-67
2023/10/01 12:21:24;;;;;;;13.77;9.48;;;;;;;27.61;45.00;102147.16;5192574;28;20123;-69
2023/10/01 12:23:56;;;;;;;15.02;9.60;;;;;;;27.60;45.40;102150.84;5201034;28;20030;-68
2023/10/01 12:29:13;;;;;;;14.70;9.98;;;;;;;27.52;45.36;102139.13;5196844;28;20030;-67
2023/10/01 12:31:45;;;;;;;16.70;9.90;;;;;;;27.23;48.11;102139.72;5209289;28;20022;-69
2023/10/01 12:34:17;;;;;;;14.02;8.55;;;;;;;27.29;48.30;102125.56;5212066;28;20400;-69
2023/10/01 12:36:51;;;;;;;15.88;9.57;;;;;;;27.44;47.94;102130.25;5197612;28;20484;-69
2023/10/01 12:39:27;;;;;;;13.63;9.77;;;;;;;27.38;46.72;102121.00;5211847;28;20055;-68
2023/10/01 12:42:04;;;;;;;15.20;9.85;;;;;;;27.13;48.79;102118.38;5211949;28;20092;-69